Time;durP1;ratioP1;P1;durP2;ratioP2;P2;SDS_P1;SDS_P2;PMS_P1;PMS_P2;Temp;Humidity;BMP_temperature;BMP_pressure;BME280_temperature;BME280_humidity;BME280_pressure;Samples;Min_cycle;Max_cycle;Signal;HPM_P1;HPM_P2
2022/05/18 00:00:43;;;;;;;14.13;6.93;;;;;;;;;;4971894;28;20031;-76
2022/05/18 00:03:09;;;;;;;12.73;6.63;;;;;;;;;;4971813;28;20097;-76
2022/05/18 00:05:37;;;;;;;14.50;6.68;;;;;;;;;;4973697;28;20106;-76
2022/05/18 00:08:05;;;;;;;11.63;6.75;;;;;;;;;;4957855;28;20061;-76
2022/05/18 00:10:32;;;;;;;11.35;6.70;;;;;;;;;;4975364;28;20030;-76
2022/05/18 00:12:58;;;;;;;13.10;6.20;;;;;;;;;;4975479;28;20081;-75
2022/05/18 00:15:25;;;;;;;18.33;7.43;;;;;;;;;;4957812;28;20066;-76
2022/05/18 00:17:51;;;;;;;12.07;7.10;;;;;;;;;;4962609;28;20475;-76
2022/05/18 00:20:18;;;;;;;14.10;6.80;;;;;;;;;;4938684;29;20130;-76
2022/05/18 00:22:54;;;;;;;13.77;7.38;;;;;;;;;;4947068;28;20908;-75
2022/05/18 00:25:21;;;;;;;13.48;7.38;;;;;;;;;;4977811;28;20090;-75
2022/05/18 00:27:48;;;;;;;12.70;7.85;;;;;;;;;;4972957;28;20034;-75
2022/05/18 00:30:15;;;;;;;16.83;7.18;;;;;;;;;;4956660;28;20023;-75
2022/05/18 00:32:41;;;;;;;16.80;7.78;;;;;;;;;;4974157;28;20126;-76
2022/05/18 00:35:07;;;;;;;15.18;7.70;;;;;;;;;;4974535;28;20093;-76
2022/05/18 00:37:33;;;;;;;15.45;6.55;;;;;;;;;;4956501;28;20042;-76
2022/05/18 00:40:00;;;;;;;14.52;7.00;;;;;;;;;;4974113;28;20031;-76
2022/05/18 00:42:27;;;;;;;12.38;6.68;;;;;;;;;;4973850;28;20054;-76
2022/05/18 00:44:53;;;;;;;14.75;7.30;;;;;;;;;;4973960;28;20039;-76
2022/05/18 00:47:20;;;;;;;15.93;7.25;;;;;;;;;;4974170;28;20026;-76
2022/05/18 00:49:48;;;;;;;18.67;8.65;;;;;;;;;;4973955;28;20125;-76
2022/05/18 00:52:15;;;;;;;15.15;8.07;;;;;;;;;;4973880;28;20042;-76
2022/05/18 00:54:41;;;;;;;14.10;7.28;;;;;;;;;;4956378;28;20126;-75
2022/05/18 00:57:10;;;;;;;17.75;8.25;;;;;;;;;;4973847;28;20073;-76
2022/05/18 00:59:43;;;;;;;16.17;7.57;;;;;;;;;;4973991;28;20093;-76
2022/05/18 01:02:10;;;;;;;16.77;8.23;;;;;;;;;;4973776;28;20023;-76
2022/05/18 01:04:36;;;;;;;19.60;8.50;;;;;;;;;;4973679;28;20120;-76
2022/05/18 01:07:04;;;;;;;15.68;8.00;;;;;;;;;;4973754;28;20353;-76
2022/05/18 01:09:37;;;;;;;18.17;7.78;;;;;;;;;;4973618;28;20049;-76
2022/05/18 01:12:08;;;;;;;16.00;8.13;;;;;;;;;;4955996;28;20092;-76
2022/05/18 01:14:37;;;;;;;15.27;7.57;;;;;;;;;;4973485;28;20057;-75
2022/05/18 01:17:04;;;;;;;14.18;8.00;;;;;;;;;;4972318;28;20041;-76
2022/05/18 01:19:30;;;;;;;16.42;7.95;;;;;;;;;;4973494;28;20033;-76
2022/05/18 01:22:01;;;;;;;15.07;7.70;;;;;;;;;;4973175;28;20340;-76
2022/05/18 01:24:39;;;;;;;15.55;8.05;;;;;;;;;;4973697;28;20069;-76
2022/05/18 01:27:05;;;;;;;14.85;8.02;;;;;;;;;;4974021;28;20389;-76
2022/05/18 01:29:32;;;;;;;16.77;7.68;;;;;;;;;;4973986;28;20058;-76
2022/05/18 01:32:03;;;;;;;14.15;8.20;;;;;;;;;;4974056;28;20038;-76
2022/05/18 01:34:30;;;;;;;15.13;8.65;;;;;;;;;;4974177;28;20069;-76
2022/05/18 01:36:56;;;;;;;16.17;7.90;;;;;;;;;;4973745;28;20047;-76
2022/05/18 01:39:25;;;;;;;17.85;8.75;;;;;;;;;;4973949;28;20089;-76
2022/05/18 01:42:12;;;;;;;16.40;9.63;;;;;;;;;;4956055;28;20038;-76
2022/05/18 01:44:39;;;;;;;21.77;8.65;;;;;;;;;;4973676;28;20039;-76
2022/05/18 01:47:05;;;;;;;16.52;8.20;;;;;;;;;;4973711;28;20465;-76
2022/05/18 01:49:32;;;;;;;15.32;7.90;;;;;;;;;;4973676;28;20035;-76
2022/05/18 01:51:59;;;;;;;20.85;7.93;;;;;;;;;;4973823;28;20158;-75
2022/05/18 01:54:25;;;;;;;20.85;8.65;;;;;;;;;;4973460;28;20031;-75
2022/05/18 01:56:51;;;;;;;16.25;8.07;;;;;;;;;;4973338;28;20085;-76
2022/05/18 01:59:17;;;;;;;16.98;7.72;;;;;;;;;;4973598;28;20026;-76
2022/05/18 02:01:44;;;;;;;16.27;8.30;;;;;;;;;;4973454;28;20038;-76
2022/05/18 02:04:10;;;;;;;16.05;7.65;;;;;;;;;;4967108;28;20015;-76
2022/05/18 02:06:36;;;;;;;18.83;7.43;;;;;;;;;;4954076;29;20031;-75
2022/05/18 02:09:04;;;;;;;15.80;7.35;;;;;;;;;;4953904;29;20024;-76
2022/05/18 02:11:32;;;;;;;14.00;7.20;;;;;;;;;;4953876;29;20363;-76
2022/05/18 02:13:58;;;;;;;16.27;7.55;;;;;;;;;;4953750;29;20059;-76
2022/05/18 02:16:24;;;;;;;17.85;7.50;;;;;;;;;;4953945;29;20343;-76
2022/05/18 02:18:50;;;;;;;12.20;6.65;;;;;;;;;;4953740;29;20426;-76
2022/05/18 02:21:16;;;;;;;16.52;7.82;;;;;;;;;;4968245;28;20019;-76
2022/05/18 02:23:43;;;;;;;12.15;6.82;;;;;;;;;;4972738;28;20034;-76
2022/05/18 02:26:10;;;;;;;10.80;6.88;;;;;;;;;;4955351;28;20085;-76
2022/05/18 02:28:36;;;;;;;13.00;7.40;;;;;;;;;;4972593;28;20019;-76
2022/05/18 02:31:02;;;;;;;16.08;7.63;;;;;;;;;;4973031;28;20059;-76
2022/05/18 02:33:28;;;;;;;10.77;6.80;;;;;;;;;;4972783;28;20049;-76
2022/05/18 02:35:54;;;;;;;11.40;7.15;;;;;;;;;;4972957;28;20038;-76
2022/05/18 02:38:20;;;;;;;17.45;7.38;;;;;;;;;;4972925;28;20039;-76
2022/05/18 02:40:46;;;;;;;15.07;7.13;;;;;;;;;;4972521;28;20038;-76
2022/05/18 02:43:12;;;;;;;18.13;7.55;;;;;;;;;;4972529;28;20053;-76
2022/05/18 02:45:38;;;;;;;11.50;7.22;;;;;;;;;;4972700;28;20363;-76
2022/05/18 02:48:05;;;;;;;13.88;6.55;;;;;;;;;;4972582;28;20474;-76
2022/05/18 02:50:33;;;;;;;14.45;6.90;;;;;;;;;;4972637;28;20081;-76
2022/05/18 02:52:59;;;;;;;16.42;7.78;;;;;;;;;;4972606;28;20022;-76
2022/05/18 02:58:10;;;;;;;13.68;6.60;;;;;;;;;;4972659;28;20061;-76
2022/05/18 03:00:36;;;;;;;15.88;7.60;;;;;;;;;;4972572;28;20035;-76
2022/05/18 03:03:02;;;;;;;14.88;7.03;;;;;;;;;;4972531;28;20019;-76
2022/05/18 03:05:28;;;;;;;12.77;6.90;;;;;;;;;;4972413;28;20166;-76
2022/05/18 03:07:54;;;;;;;14.40;7.30;;;;;;;;;;4955062;28;20057;-76
2022/05/18 03:10:20;;;;;;;12.38;7.25;;;;;;;;;;4972455;28;20019;-76
2022/05/18 03:12:46;;;;;;;18.63;7.22;;;;;;;;;;4972520;28;20469;-76
2022/05/18 03:15:13;;;;;;;18.92;7.03;;;;;;;;;;4972419;28;20035;-76
2022/05/18 03:17:39;;;;;;;17.42;8.05;;;;;;;;;;4972521;28;20097;-76
2022/05/18 03:20:09;;;;;;;15.80;6.80;;;;;;;;;;4966931;28;20359;-75
2022/05/18 03:25:40;;;;;;;13.63;7.32;;;;;;;;;;4952828;29;20039;-76
2022/05/18 03:28:06;;;;;;;13.13;7.22;;;;;;;;;;4953084;29;20103;-76
2022/05/18 03:30:32;;;;;;;13.73;7.15;;;;;;;;;;4953043;29;20040;-76
2022/05/18 03:32:58;;;;;;;18.20;7.97;;;;;;;;;;4953102;29;20769;-76
2022/05/18 03:35:24;;;;;;;11.30;6.53;;;;;;;;;;4953301;29;20136;-76
2022/05/18 03:37:50;;;;;;;16.02;7.38;;;;;;;;;;4952997;29;20031;-76
2022/05/18 03:40:16;;;;;;;10.10;6.65;;;;;;;;;;4960282;28;20027;-76
2022/05/18 03:42:42;;;;;;;12.90;7.15;;;;;;;;;;4975698;28;20526;-76
2022/05/18 03:45:09;;;;;;;15.50;7.63;;;;;;;;;;4958329;28;20035;-76
2022/05/18 03:47:35;;;;;;;11.18;6.55;;;;;;;;;;4975858;28;20450;-76
2022/05/18 03:50:01;;;;;;;15.65;7.15;;;;;;;;;;4975911;28;20374;-76
2022/05/18 03:52:27;;;;;;;13.57;6.90;;;;;;;;;;4975879;28;20037;-76
2022/05/18 03:54:53;;;;;;;12.48;5.80;;;;;;;;;;4957494;28;20055;-76
2022/05/18 03:57:19;;;;;;;13.00;6.20;;;;;;;;;;4938919;29;20031;-76
2022/05/18 03:59:45;;;;;;;16.20;6.72;;;;;;;;;;4956306;29;20039;-76
2022/05/18 04:02:11;;;;;;;17.92;6.63;;;;;;;;;;4956349;29;20023;-76
2022/05/18 04:04:37;;;;;;;14.05;6.63;;;;;;;;;;4956311;29;20027;-76
2022/05/18 04:07:03;;;;;;;10.82;6.00;;;;;;;;;;4938708;29;20031;-76
2022/05/18 04:09:29;;;;;;;11.80;6.88;;;;;;;;;;4956275;29;20027;-76
2022/05/18 04:11:55;;;;;;;12.52;6.63;;;;;;;;;;4956221;29;20024;-76
2022/05/18 04:14:21;;;;;;;14.35;6.75;;;;;;;;;;4956118;29;20472;-76
2022/05/18 04:16:49;;;;;;;10.52;6.40;;;;;;;;;;4956155;29;20034;-76
2022/05/18 04:19:16;;;;;;;14.25;7.03;;;;;;;;;;4955990;29;20065;-76
2022/05/18 04:21:42;;;;;;;14.85;6.65;;;;;;;;;;4973512;28;20037;-76
2022/05/18 04:24:08;;;;;;;13.70;6.40;;;;;;;;;;4975027;28;20034;-76
2022/05/18 04:26:34;;;;;;;10.20;5.88;;;;;;;;;;4975100;28;20038;-76
2022/05/18 04:29:00;;;;;;;9.60;6.30;;;;;;;;;;4957674;28;20026;-76
2022/05/18 04:31:26;;;;;;;9.68;6.28;;;;;;;;;;4975318;28;20026;-76
2022/05/18 04:33:52;;;;;;;13.00;6.57;;;;;;;;;;4975098;28;20389;-76
2022/05/18 04:36:18;;;;;;;11.30;5.93;;;;;;;;;;4975065;28;20460;-76
2022/05/18 04:38:44;;;;;;;14.48;6.68;;;;;;;;;;4974998;28;20494;-76
2022/05/18 04:41:11;;;;;;;13.15;7.18;;;;;;;;;;4974952;28;20047;-76
2022/05/18 04:43:37;;;;;;;18.10;6.85;;;;;;;;;;4957072;28;20359;-76
2022/05/18 04:46:04;;;;;;;12.25;6.38;;;;;;;;;;4975043;28;20085;-76
2022/05/18 04:48:32;;;;;;;16.17;5.75;;;;;;;;;;4957319;28;20023;-76
2022/05/18 04:51:00;;;;;;;12.88;6.95;;;;;;;;;;4974430;28;20042;-76
2022/05/18 04:53:26;;;;;;;11.93;6.40;;;;;;;;;;4974772;28;20034;-76
2022/05/18 04:55:52;;;;;;;9.40;6.07;;;;;;;;;;4957239;28;20034;-76
2022/05/18 04:58:18;;;;;;;16.27;7.57;;;;;;;;;;4974657;28;20406;-76
2022/05/18 05:00:45;;;;;;;18.15;7.05;;;;;;;;;;4957273;28;20031;-76
2022/05/18 05:03:11;;;;;;;12.60;5.97;;;;;;;;;;4974636;28;20054;-76
2022/05/18 05:05:37;;;;;;;11.10;5.97;;;;;;;;;;4974507;28;20031;-76
2022/05/18 05:08:03;;;;;;;14.25;5.55;;;;;;;;;;4957003;28;20473;-76
2022/05/18 05:10:29;;;;;;;12.90;6.00;;;;;;;;;;4974455;28;20023;-76
2022/05/18 05:12:55;;;;;;;11.38;6.25;;;;;;;;;;4957165;28;20716;-76
2022/05/18 05:15:21;;;;;;;13.27;6.82;;;;;;;;;;4974346;28;20039;-76
2022/05/18 05:17:47;;;;;;;9.82;5.95;;;;;;;;;;4974504;28;20031;-76
2022/05/18 05:20:13;;;;;;;12.20;5.95;;;;;;;;;;4973962;28;20098;-76
2022/05/18 05:22:39;;;;;;;20.33;6.57;;;;;;;;;;4974207;28;20117;-76
2022/05/18 05:25:06;;;;;;;11.75;6.82;;;;;;;;;;4973647;28;20027;-76
2022/05/18 05:27:32;;;;;;;12.93;7.22;;;;;;;;;;4974109;28;20431;-76
2022/05/18 05:29:58;;;;;;;13.32;7.05;;;;;;;;;;4974058;28;20370;-76
2022/05/18 05:32:25;;;;;;;11.32;6.43;;;;;;;;;;4973964;28;20437;-76
2022/05/18 05:34:51;;;;;;;11.07;6.50;;;;;;;;;;4974176;28;20030;-76
2022/05/18 05:37:17;;;;;;;12.50;6.40;;;;;;;;;;4973854;28;20088;-76
2022/05/18 05:39:43;;;;;;;14.15;6.60;;;;;;;;;;4973933;28;20062;-76
2022/05/18 05:42:10;;;;;;;12.85;6.85;;;;;;;;;;4973455;28;20065;-76
2022/05/18 05:44:36;;;;;;;15.10;6.55;;;;;;;;;;4973839;28;20030;-76
2022/05/18 05:47:05;;;;;;;16.38;6.60;;;;;;;;;;4973872;28;20015;-76
2022/05/18 05:49:31;;;;;;;11.20;6.22;;;;;;;;;;4956014;28;20023;-76
2022/05/18 05:51:57;;;;;;;15.52;7.22;;;;;;;;;;4973410;28;20212;-76
2022/05/18 05:54:24;;;;;;;13.90;6.78;;;;;;;;;;4952636;29;20082;-76
2022/05/18 05:56:50;;;;;;;11.75;6.65;;;;;;;;;;4953739;29;20027;-76
2022/05/18 05:59:19;;;;;;;11.27;6.53;;;;;;;;;;4954102;29;20038;-76
2022/05/18 06:01:45;;;;;;;10.55;6.20;;;;;;;;;;4954209;28;20023;-76
2022/05/18 06:04:11;;;;;;;18.13;6.72;;;;;;;;;;4953574;29;20127;-76
2022/05/18 06:06:38;;;;;;;11.60;6.88;;;;;;;;;;4954051;29;20079;-76
2022/05/18 06:09:07;;;;;;;14.32;7.90;;;;;;;;;;4953957;29;20023;-76
2022/05/18 06:11:34;;;;;;;14.50;6.40;;;;;;;;;;4954035;29;20023;-75
2022/05/18 06:14:03;;;;;;;12.20;7.18;;;;;;;;;;4953968;29;20087;-76
2022/05/18 06:16:29;;;;;;;12.38;7.00;;;;;;;;;;4953920;29;20054;-76
2022/05/18 06:18:56;;;;;;;12.38;7.97;;;;;;;;;;4953844;29;20114;-76
2022/05/18 06:21:22;;;;;;;11.65;6.65;;;;;;;;;;4968913;28;20030;-76
2022/05/18 06:23:48;;;;;;;15.35;7.50;;;;;;;;;;4972789;28;20122;-77
2022/05/18 06:26:14;;;;;;;15.63;7.35;;;;;;;;;;4972909;28;20023;-76
2022/05/18 06:28:41;;;;;;;10.35;7.15;;;;;;;;;;4972922;28;20022;-77
2022/05/18 06:31:07;;;;;;;13.57;7.53;;;;;;;;;;4973077;28;20031;-76
2022/05/18 06:33:34;;;;;;;13.48;7.70;;;;;;;;;;4972838;28;20485;-76
2022/05/18 06:36:01;;;;;;;14.95;8.05;;;;;;;;;;4972855;28;20034;-76
2022/05/18 06:38:27;;;;;;;20.92;8.00;;;;;;;;;;4972789;28;20476;-76
2022/05/18 06:43:56;;;;;;;13.23;7.70;;;;;;;;;;4893900;29;20540;-76
2022/05/18 06:46:23;;;;;;;11.82;7.82;;;;;;;;;;4894065;29;20075;-76
2022/05/18 06:48:49;;;;;;;12.52;7.57;;;;;;;;;;4894110;29;20021;-76
2022/05/18 06:51:19;;;;;;;18.08;7.85;;;;;;;;;;4893913;29;20056;-76
2022/05/18 06:53:45;;;;;;;15.43;8.23;;;;;;;;;;4869557;29;20086;-76
2022/05/18 06:56:11;;;;;;;14.50;8.35;;;;;;;;;;4875368;29;20080;-76
2022/05/18 06:58:38;;;;;;;14.18;7.75;;;;;;;;;;4875272;29;20060;-76
2022/05/18 07:01:06;;;;;;;20.35;8.65;;;;;;;;;;4875361;29;20037;-76
2022/05/18 07:03:32;;;;;;;20.92;9.23;;;;;;;;;;4875204;29;20454;-76
2022/05/18 07:05:58;;;;;;;17.13;8.63;;;;;;;;;;4879237;29;20077;-76
2022/05/18 07:08:24;;;;;;;16.60;8.35;;;;;;;;;;4893410;29;20037;-76
2022/05/18 07:10:50;;;;;;;14.95;8.70;;;;;;;;;;4884961;29;20498;-77
2022/05/18 07:13:17;;;;;;;16.08;8.30;;;;;;;;;;4877730;29;20093;-76
2022/05/18 07:15:43;;;;;;;15.15;8.77;;;;;;;;;;4891374;29;20037;-76
2022/05/18 07:18:09;;;;;;;15.43;9.18;;;;;;;;;;4941906;28;20038;-76
2022/05/18 07:20:35;;;;;;;18.30;9.63;;;;;;;;;;4972798;28;20027;-76
2022/05/18 07:23:02;;;;;;;15.27;9.23;;;;;;;;;;4975387;28;20034;-76
2022/05/18 07:25:28;;;;;;;18.02;8.73;;;;;;;;;;4957675;28;20045;-76
2022/05/18 07:27:54;;;;;;;17.27;9.23;;;;;;;;;;4958005;28;20698;-76
2022/05/18 07:30:20;;;;;;;18.17;9.68;;;;;;;;;;4975577;28;20050;-76
2022/05/18 07:32:46;;;;;;;23.50;10.07;;;;;;;;;;4975467;28;20035;-76
2022/05/18 07:35:12;;;;;;;15.20;10.23;;;;;;;;;;4975883;28;20082;-76
2022/05/18 07:37:38;;;;;;;17.63;9.93;;;;;;;;;;4975306;28;20050;-76
2022/05/18 07:40:06;;;;;;;21.90;11.10;;;;;;;;;;4975216;28;20031;-76
2022/05/18 07:42:33;;;;;;;16.45;11.02;;;;;;;;;;4957509;28;20494;-76
2022/05/18 07:44:59;;;;;;;19.23;11.30;;;;;;;;;;4975001;28;20038;-76
2022/05/18 07:47:31;;;;;;;19.90;10.50;;;;;;;;;;4975187;28;20098;-76
2022/05/18 07:49:58;;;;;;;19.35;10.25;;;;;;;;;;4974640;28;20058;-76
2022/05/18 07:52:24;;;;;;;18.40;10.30;;;;;;;;;;4957594;28;20034;-76
2022/05/18 07:54:50;;;;;;;17.50;11.15;;;;;;;;;;4973210;28;20429;-76
2022/05/18 07:57:17;;;;;;;24.48;11.02;;;;;;;;;;4974095;28;20019;-76
2022/05/18 07:59:43;;;;;;;20.15;11.27;;;;;;;;;;4973274;28;20066;-76
2022/05/18 08:02:09;;;;;;;20.23;10.88;;;;;;;;;;4974967;28;20026;-76
2022/05/18 08:04:35;;;;;;;17.25;10.90;;;;;;;;;;4974851;28;20347;-76
2022/05/18 08:07:01;;;;;;;19.15;10.73;;;;;;;;;;4974714;28;20058;-76
2022/05/18 08:09:28;;;;;;;19.55;11.00;;;;;;;;;;4974866;28;20030;-76
2022/05/18 08:17:25;;;;;;;18.58;11.50;;;;;;;;;;4974957;28;20046;-76
2022/05/18 08:19:51;;;;;;;18.52;10.80;;;;;;;;;;4974750;28;20019;-76
2022/05/18 08:22:17;;;;;;;20.23;11.30;;;;;;;;;;4974737;28;20022;-77
2022/05/18 08:24:43;;;;;;;18.40;11.45;;;;;;;;;;4971818;28;20161;-75
2022/05/18 08:27:14;;;;;;;18.75;11.35;;;;;;;;;;4973920;28;20027;-75
2022/05/18 08:29:40;;;;;;;20.98;11.98;;;;;;;;;;4957318;28;20026;-75
2022/05/18 08:32:06;;;;;;;25.83;12.65;;;;;;;;;;4974765;28;20025;-75
2022/05/18 08:34:33;;;;;;;18.55;11.15;;;;;;;;;;4974536;28;20113;-74
2022/05/18 08:37:00;;;;;;;20.30;11.63;;;;;;;;;;4974168;28;20022;-74
2022/05/18 08:39:26;;;;;;;18.80;11.50;;;;;;;;;;4971925;28;20069;-74
2022/05/18 08:41:52;;;;;;;20.98;11.68;;;;;;;;;;4956467;28;20019;-74
2022/05/18 08:44:24;;;;;;;19.63;11.90;;;;;;;;;;4974113;28;20059;-75
2022/05/18 08:46:53;;;;;;;19.30;11.45;;;;;;;;;;4974684;28;20019;-77
2022/05/18 08:49:39;;;;;;;18.77;11.55;;;;;;;;;;4974474;28;20046;-76
2022/05/18 08:52:23;;;;;;;20.40;11.55;;;;;;;;;;4974665;28;20113;-76
2022/05/18 08:54:52;;;;;;;22.17;12.00;;;;;;;;;;4974538;28;20470;-76
2022/05/18 08:57:27;;;;;;;19.05;11.32;;;;;;;;;;4974582;28;20109;-76
2022/05/18 08:59:56;;;;;;;23.30;11.82;;;;;;;;;;4974757;28;20034;-76
2022/05/18 09:02:25;;;;;;;25.20;12.75;;;;;;;;;;4974575;28;20077;-76
2022/05/18 09:04:56;;;;;;;23.85;13.07;;;;;;;;;;4974509;28;20023;-76
2022/05/18 09:07:25;;;;;;;24.27;12.10;;;;;;;;;;4974360;28;20339;-76
2022/05/18 09:12:38;;;;;;;18.92;13.15;;;;;;;;;;4974767;28;20122;-76
2022/05/18 09:15:07;;;;;;;20.80;12.30;;;;;;;;;;4974278;28;20038;-76
2022/05/18 09:17:41;;;;;;;19.45;11.48;;;;;;;;;;4974347;28;20030;-76
2022/05/18 09:20:11;;;;;;;18.58;12.20;;;;;;;;;;4974242;28;20029;-76
2022/05/18 09:22:41;;;;;;;17.67;11.30;;;;;;;;;;4956529;28;20058;-77
2022/05/18 09:25:13;;;;;;;18.20;11.10;;;;;;;;;;4973929;28;20023;-75
2022/05/18 09:27:42;;;;;;;14.23;9.55;;;;;;;;;;4974233;28;20078;-76
2022/05/18 09:30:17;;;;;;;17.00;10.07;;;;;;;;;;4974023;28;20082;-76
2022/05/18 09:32:43;;;;;;;14.57;8.75;;;;;;;;;;4956746;28;20496;-76
2022/05/18 09:35:28;;;;;;;16.30;9.50;;;;;;;;;;4956774;28;20038;-76
2022/05/18 09:38:08;;;;;;;18.65;11.60;;;;;;;;;;4974364;28;20042;-77
2022/05/18 09:40:54;;;;;;;16.33;10.43;;;;;;;;;;4978753;28;20054;-77
2022/05/18 09:43:21;;;;;;;14.52;8.93;;;;;;;;;;4958643;28;20049;-77
2022/05/18 09:45:49;;;;;;;16.63;7.65;;;;;;;;;;4960466;28;20082;-77
2022/05/18 09:48:18;;;;;;;11.05;7.28;;;;;;;;;;4979179;28;20019;-78
2022/05/18 09:50:45;;;;;;;15.18;7.20;;;;;;;;;;4977389;28;20028;-77
2022/05/18 09:53:11;;;;;;;11.48;6.80;;;;;;;;;;4974198;28;20026;-77
2022/05/18 09:55:37;;;;;;;13.35;7.20;;;;;;;;;;4973592;28;20054;-77
2022/05/18 09:58:03;;;;;;;10.23;6.65;;;;;;;;;;4974246;28;20059;-77
2022/05/18 10:00:32;;;;;;;16.13;7.20;;;;;;;;;;4973662;28;20019;-77
2022/05/18 10:08:46;;;;;;;19.10;6.60;;;;;;;;;;4974213;28;20513;-77
2022/05/18 10:11:14;;;;;;;8.50;5.95;;;;;;;;;;4973854;28;20027;-77
2022/05/18 10:13:53;;;;;;;9.45;5.93;;;;;;;;;;4973630;28;20050;-76
2022/05/18 10:16:31;;;;;;;13.45;5.63;;;;;;;;;;4973551;28;20031;-75
2022/05/18 10:18:59;;;;;;;11.65;5.20;;;;;;;;;;4972482;28;20023;-76
2022/05/18 10:21:32;;;;;;;11.45;5.90;;;;;;;;;;4952232;28;20038;-75
2022/05/18 10:24:01;;;;;;;10.73;6.40;;;;;;;;;;4972915;28;20108;-76
2022/05/18 10:26:27;;;;;;;9.32;5.30;;;;;;;;;;4972874;28;20030;-76
2022/05/18 10:28:56;;;;;;;9.63;4.85;;;;;;;;;;4955486;28;20034;-77
2022/05/18 10:31:30;;;;;;;8.30;5.72;;;;;;;;;;4972954;28;20019;-76
2022/05/18 10:34:14;;;;;;;14.82;6.38;;;;;;;;;;4955476;28;20377;-75
2022/05/18 10:36:42;;;;;;;9.32;5.78;;;;;;;;;;4972484;28;20486;-76
2022/05/18 10:39:08;;;;;;;8.05;4.38;;;;;;;;;;4972766;28;20027;-76
2022/05/18 10:41:42;;;;;;;11.40;4.50;;;;;;;;;;4953751;28;20030;-76
2022/05/18 10:44:14;;;;;;;8.85;5.60;;;;;;;;;;4950823;29;20069;-76
2022/05/18 10:46:44;;;;;;;13.05;5.20;;;;;;;;;;4951498;29;20479;-76
2022/05/18 10:49:26;;;;;;;10.52;5.38;;;;;;;;;;4952214;29;20353;-76
2022/05/18 10:51:52;;;;;;;15.70;5.90;;;;;;;;;;4951577;29;20019;-76
2022/05/18 10:54:18;;;;;;;14.07;5.50;;;;;;;;;;4951062;28;20028;-76
2022/05/18 10:56:44;;;;;;;10.77;5.75;;;;;;;;;;4942182;28;20031;-76
2022/05/18 10:59:19;;;;;;;11.75;5.60;;;;;;;;;;4942077;29;20035;-76
2022/05/18 11:01:49;;;;;;;8.40;5.05;;;;;;;;;;4942261;29;20023;-76
2022/05/18 11:04:23;;;;;;;7.20;4.45;;;;;;;;;;4941502;29;20091;-76
2022/05/18 11:06:49;;;;;;;9.18;3.97;;;;;;;;;;4950767;29;20034;-76
2022/05/18 11:09:20;;;;;;;6.50;3.47;;;;;;;;;;4953625;29;20023;-76
2022/05/18 11:11:52;;;;;;;5.50;2.67;;;;;;;;;;4953482;28;20042;-75
2022/05/18 11:14:24;;;;;;;6.68;2.90;;;;;;;;;;4953646;29;20031;-77
2022/05/18 11:16:50;;;;;;;;;;;;;;;;;;4951239;29;20019;-76
2022/05/18 11:19:31;;;;;;;8.82;2.65;;;;;;;;;;4953429;28;19953;-79
2022/05/18 11:22:03;;;;;;;7.93;2.70;;;;;;;;;;4933787;29;20028;-79
2022/05/18 11:24:45;;;;;;;6.10;2.88;;;;;;;;;;4933344;29;20476;-79
2022/05/18 11:27:26;;;;;;;9.80;3.47;;;;;;;;;;4933751;29;20028;-79
2022/05/18 11:30:18;;;;;;;5.13;2.95;;;;;;;;;;4933868;29;20044;-79
2022/05/18 11:33:00;;;;;;;6.03;2.63;;;;;;;;;;4932775;29;20044;-79
2022/05/18 11:35:26;;;;;;;7.18;2.88;;;;;;;;;;4933616;29;20586;-79
2022/05/18 11:37:58;;;;;;;9.35;2.72;;;;;;;;;;4933879;29;20040;-79
2022/05/18 11:40:24;;;;;;;;;;;;;;;;;;4934049;29;20428;-78
2022/05/18 11:42:55;;;;;;;7.18;2.20;;;;;;;;;;4939484;29;20052;-79
2022/05/18 11:45:21;;;;;;;;;;;;;;;;;;4953145;29;20038;-79
2022/05/18 11:47:56;;;;;;;5.72;1.77;;;;;;;;;;4952908;29;19949;-79
2022/05/18 11:50:22;;;;;;;4.03;1.98;;;;;;;;;;4952782;29;20513;-79
2022/05/18 11:53:06;;;;;;;5.15;2.35;;;;;;;;;;4953986;28;20035;-79
2022/05/18 11:55:51;;;;;;;8.88;2.85;;;;;;;;;;4972572;28;20117;-78
2022/05/18 11:58:41;;;;;;;6.82;2.50;;;;;;;;;;4972444;28;20030;-79
2022/05/18 12:01:14;;;;;;;13.73;2.80;;;;;;;;;;4973453;28;20037;-76
2022/05/18 12:03:59;;;;;;;7.82;3.08;;;;;;;;;;4974492;28;20027;-77
2022/05/18 12:06:41;;;;;;;12.15;3.53;;;;;;;;;;4973941;28;20026;-75
2022/05/18 12:09:26;;;;;;;11.40;3.40;;;;;;;;;;4974324;28;20023;-77
2022/05/18 12:11:58;;;;;;;10.63;3.85;;;;;;;;;;4973038;28;20054;-75
2022/05/18 12:14:43;;;;;;;15.90;3.80;;;;;;;;;;4974576;28;20035;-75
2022/05/18 12:17:09;;;;;;;15.40;4.25;;;;;;;;;;4974851;28;20560;-74
2022/05/18 12:19:50;;;;;;;10.13;3.20;;;;;;;;;;4956598;28;20026;-77
2022/05/18 12:22:20;;;;;;;10.38;3.05;;;;;;;;;;4974497;28;20109;-77
2022/05/18 12:24:48;;;;;;;7.55;2.60;;;;;;;;;;4973682;28;20027;-74
2022/05/18 12:27:15;;;;;;;4.60;2.67;;;;;;;;;;4957822;28;20093;-74
2022/05/18 12:29:42;;;;;;;5.32;2.40;;;;;;;;;;4975343;28;20106;-76
2022/05/18 12:32:09;;;;;;;6.00;2.03;;;;;;;;;;4975680;28;20454;-76
2022/05/18 12:34:35;;;;;;;5.80;2.30;;;;;;;;;;4975342;28;20462;-74
2022/05/18 12:37:13;;;;;;;8.98;2.95;;;;;;;;;;4975133;28;20045;-75
2022/05/18 12:39:41;;;;;;;12.93;3.30;;;;;;;;;;4974967;28;20050;-75
2022/05/18 12:42:09;;;;;;;6.60;2.70;;;;;;;;;;4957668;28;20388;-76
2022/05/18 12:44:46;;;;;;;6.28;2.22;;;;;;;;;;4957580;28;20031;-76
2022/05/18 12:47:18;;;;;;;5.95;3.13;;;;;;;;;;4957572;28;20029;-75
2022/05/18 12:49:45;;;;;;;5.45;2.55;;;;;;;;;;4974870;28;20030;-78
2022/05/18 12:52:30;;;;;;;5.40;2.33;;;;;;;;;;4974701;28;20122;-75
2022/05/18 12:54:57;;;;;;;9.88;2.78;;;;;;;;;;4954251;29;20050;-76
2022/05/18 12:57:28;;;;;;;6.40;2.45;;;;;;;;;;4955538;29;20130;-75
2022/05/18 13:00:00;;;;;;;5.22;2.47;;;;;;;;;;4959102;28;20034;-75
2022/05/18 13:02:42;;;;;;;6.45;2.20;;;;;;;;;;4973145;28;20393;-76
2022/05/18 13:05:31;;;;;;;5.50;2.90;;;;;;;;;;4973479;28;20061;-74
2022/05/18 13:08:11;;;;;;;9.63;3.58;;;;;;;;;;4955223;28;20053;-74
2022/05/18 13:10:38;;;;;;;9.77;3.00;;;;;;;;;;4973593;28;20032;-76
2022/05/18 13:13:18;;;;;;;6.43;2.75;;;;;;;;;;4955744;28;20117;-75
2022/05/18 13:15:57;;;;;;;7.53;3.45;;;;;;;;;;4972871;28;20092;-75
2022/05/18 13:18:29;;;;;;;7.32;3.15;;;;;;;;;;4972885;28;20484;-73
2022/05/18 13:20:57;;;;;;;;;;;;;;;;;;4971532;28;20081;-75
2022/05/18 13:23:24;;;;;;;7.55;2.75;;;;;;;;;;4973993;28;20414;-75
2022/05/18 13:26:00;;;;;;;6.68;2.70;;;;;;;;;;4974070;28;20102;-75
2022/05/18 13:28:26;;;;;;;8.20;3.10;;;;;;;;;;4971176;28;20374;-75
2022/05/18 13:30:57;;;;;;;27.42;3.65;;;;;;;;;;4974215;28;20022;-75
2022/05/18 13:33:25;;;;;;;7.32;3.20;;;;;;;;;;4973457;28;20026;-75
2022/05/18 13:35:51;;;;;;;9.00;3.05;;;;;;;;;;4974195;28;20030;-75
2022/05/18 13:38:21;;;;;;;7.10;2.83;;;;;;;;;;4955483;28;20030;-75
2022/05/18 13:40:48;;;;;;;8.80;2.78;;;;;;;;;;4973290;28;20034;-75
2022/05/18 13:43:15;;;;;;;10.93;3.00;;;;;;;;;;4955347;28;20059;-75
2022/05/18 13:45:47;;;;;;;9.43;3.53;;;;;;;;;;4972661;28;20489;-75
2022/05/18 13:48:13;;;;;;;6.53;3.15;;;;;;;;;;4971322;28;20093;-75
2022/05/18 13:50:40;;;;;;;7.25;2.60;;;;;;;;;;4973027;28;20369;-74
2022/05/18 13:53:19;;;;;;;7.88;2.90;;;;;;;;;;4971974;28;20613;-74
2022/05/18 13:55:47;;;;;;;7.75;2.53;;;;;;;;;;4972125;28;20031;-74
2022/05/18 13:58:15;;;;;;;6.22;2.40;;;;;;;;;;4970668;28;20110;-75
2022/05/18 14:00:46;;;;;;;5.13;2.20;;;;;;;;;;4973096;28;20118;-75
2022/05/18 14:03:17;;;;;;;8.00;3.20;;;;;;;;;;4970474;28;20110;-76
2022/05/18 14:05:43;;;;;;;6.70;2.80;;;;;;;;;;4955485;28;20385;-74
2022/05/18 14:08:22;;;;;;;7.47;3.05;;;;;;;;;;4972916;28;20496;-75
2022/05/18 14:10:48;;;;;;;11.80;3.42;;;;;;;;;;4972760;28;20043;-75
2022/05/18 14:13:14;;;;;;;4.38;3.05;;;;;;;;;;4972828;28;20031;-73
2022/05/18 14:15:41;;;;;;;3.92;2.83;;;;;;;;;;4972741;28;20023;-75
2022/05/18 14:18:10;;;;;;;5.97;2.65;;;;;;;;;;4972578;28;20051;-75
2022/05/18 14:20:39;;;;;;;5.18;2.78;;;;;;;;;;4972438;28;20023;-75
2022/05/18 14:23:07;;;;;;;5.75;3.10;;;;;;;;;;4972322;28;20023;-75
2022/05/18 14:25:37;;;;;;;5.30;2.40;;;;;;;;;;4969716;28;20025;-75
2022/05/18 14:28:06;;;;;;;8.25;3.20;;;;;;;;;;4972190;28;20472;-75
2022/05/18 14:30:35;;;;;;;6.38;2.72;;;;;;;;;;4971899;28;20022;-72
2022/05/18 14:33:01;;;;;;;12.35;2.70;;;;;;;;;;4962933;28;20110;-73
2022/05/18 14:35:47;;;;;;;7.05;3.05;;;;;;;;;;4956425;28;20031;-74
2022/05/18 14:38:16;;;;;;;7.10;2.47;;;;;;;;;;4953296;29;20088;-75
2022/05/18 14:40:46;;;;;;;6.85;2.30;;;;;;;;;;4935891;29;20110;-75
2022/05/18 14:43:13;;;;;;;3.70;1.88;;;;;;;;;;4953346;29;20028;-75
2022/05/18 14:45:47;;;;;;;7.00;2.45;;;;;;;;;;4953044;29;20110;-73
2022/05/18 14:48:20;;;;;;;5.68;2.85;;;;;;;;;;4953247;29;20577;-75
2022/05/18 14:50:48;;;;;;;5.45;2.22;;;;;;;;;;4953194;29;20140;-73
2022/05/18 14:53:23;;;;;;;7.00;2.83;;;;;;;;;;4940604;28;20023;-73
2022/05/18 14:55:55;;;;;;;6.10;2.15;;;;;;;;;;4972264;28;20030;-74
2022/05/18 14:58:32;;;;;;;7.10;2.20;;;;;;;;;;4972179;28;20035;-75
2022/05/18 15:01:00;;;;;;;5.57;2.17;;;;;;;;;;4972661;28;20031;-77
2022/05/18 15:03:28;;;;;;;5.55;1.92;;;;;;;;;;4972704;28;20035;-78
2022/05/18 15:05:55;;;;;;;5.10;2.00;;;;;;;;;;4970868;28;20110;-73